createdAt,value
2018-09-17T00:01:43.839Z,7.40
2018-09-17T00:04:13.685Z,7.50
2018-09-17T00:06:42.898Z,7.30
2018-09-17T00:09:13.298Z,7.47
2018-09-17T00:11:42.471Z,7.47
2018-09-17T00:14:11.801Z,7.23
2018-09-17T00:16:41.162Z,7.17
2018-09-17T00:19:10.363Z,6.77
2018-09-17T00:21:39.559Z,6.93
2018-09-17T00:24:08.554Z,6.77
2018-09-17T00:26:37.739Z,6.80
2018-09-17T00:29:06.783Z,6.87
2018-09-17T00:31:35.813Z,6.83
2018-09-17T00:34:05.444Z,7.20
2018-09-17T00:36:34.461Z,7.07
2018-09-17T00:39:07.852Z,6.77
2018-09-17T00:41:36.946Z,6.70
2018-09-17T00:44:06.000Z,6.97
2018-09-17T00:46:34.962Z,6.80
2018-09-17T00:49:04.009Z,7.20
2018-09-17T00:51:33.077Z,6.17
2018-09-17T00:54:02.040Z,7.10
2018-09-17T00:56:31.168Z,7.03
2018-09-17T00:59:00.213Z,7.10
2018-09-17T01:01:29.170Z,6.70
2018-09-17T01:03:58.161Z,7.10
2018-09-17T01:06:27.176Z,6.50
2018-09-17T01:08:56.206Z,7.10
2018-09-17T01:11:25.215Z,6.43
2018-09-17T01:13:54.210Z,7.37
2018-09-17T01:16:23.275Z,7.07
2018-09-17T01:18:52.293Z,7.27
2018-09-17T01:21:21.425Z,7.23
2018-09-17T01:23:50.513Z,6.70
2018-09-17T01:26:19.645Z,7.10
2018-09-17T01:28:48.749Z,7.77
2018-09-17T01:31:17.791Z,7.10
2018-09-17T01:33:46.956Z,7.17
2018-09-17T01:36:16.104Z,7.90
2018-09-17T01:38:45.581Z,8.17
2018-09-17T01:41:14.715Z,7.77
2018-09-17T01:43:44.193Z,7.30
2018-09-17T01:46:13.439Z,7.67
2018-09-17T01:48:42.459Z,8.07
2018-09-17T01:51:11.603Z,7.17
2018-09-17T01:53:40.705Z,7.40
2018-09-17T01:56:09.959Z,7.40
2018-09-17T01:58:38.972Z,7.90
2018-09-17T02:01:08.108Z,7.67
2018-09-17T02:03:37.114Z,7.77
2018-09-17T02:06:06.100Z,7.27
2018-09-17T02:08:35.248Z,7.40
2018-09-17T02:11:04.253Z,7.27
2018-09-17T02:13:33.472Z,7.97
2018-09-17T02:16:02.562Z,7.67
2018-09-17T02:18:31.664Z,7.67
2018-09-17T02:21:00.666Z,8.03
2018-09-17T02:23:29.594Z,7.90
2018-09-17T02:25:58.576Z,7.53
2018-09-17T02:28:27.911Z,8.07
2018-09-17T02:30:56.981Z,8.30
2018-09-17T02:33:26.085Z,8.30
2018-09-17T02:35:55.025Z,8.80
2018-09-17T02:38:24.054Z,7.97
2018-09-17T02:40:53.044Z,8.50
2018-09-17T02:43:22.257Z,8.83
2018-09-17T02:45:51.249Z,8.60
2018-09-17T02:48:20.398Z,8.70
2018-09-17T02:50:49.488Z,8.40
2018-09-17T02:53:19.395Z,8.53
2018-09-17T02:55:48.390Z,8.87
2018-09-17T02:58:17.441Z,8.87
2018-09-17T03:00:46.434Z,9.17
2018-09-17T03:03:15.571Z,8.87
2018-09-17T03:05:44.674Z,9.10
2018-09-17T03:08:13.679Z,9.10
2018-09-17T03:10:42.614Z,9.33
2018-09-17T03:13:11.870Z,9.00
2018-09-17T03:15:48.492Z,8.70
2018-09-17T03:18:27.643Z,9.40
2018-09-17T03:20:56.738Z,9.70
2018-09-17T03:23:25.816Z,9.43
2018-09-17T03:25:54.907Z,9.17
2018-09-17T03:28:24.144Z,9.23
2018-09-17T03:30:53.516Z,8.97
2018-09-17T03:33:22.867Z,9.27
2018-09-17T03:35:52.137Z,9.20
2018-09-17T03:38:32.768Z,9.73
2018-09-17T03:41:03.719Z,9.23
2018-09-17T03:43:33.667Z,8.50
2018-09-17T03:46:02.936Z,9.27
2018-09-17T03:48:33.101Z,9.23
2018-09-17T03:51:02.894Z,9.83
2018-09-17T03:53:32.259Z,10.00
2018-09-17T03:56:01.384Z,9.90
2018-09-17T03:58:30.639Z,9.30
2018-09-17T04:01:00.595Z,9.30
2018-09-17T04:03:29.621Z,10.57
2018-09-17T04:05:58.757Z,9.40
2018-09-17T04:08:29.488Z,9.60
2018-09-17T04:10:58.521Z,9.63
2018-09-17T04:13:27.691Z,9.50
2018-09-17T04:15:56.834Z,9.63
2018-09-17T04:18:25.985Z,9.33
2018-09-17T04:21:07.359Z,9.63
2018-09-17T04:23:37.300Z,9.70
2018-09-17T04:26:07.668Z,9.60
2018-09-17T04:28:37.279Z,9.60
2018-09-17T04:31:06.498Z,9.03
2018-09-17T04:33:42.775Z,9.47
2018-09-17T04:36:14.764Z,9.90
2018-09-17T04:38:43.832Z,8.80
2018-09-17T04:41:12.771Z,9.83
2018-09-17T04:43:41.916Z,9.87
2018-09-17T04:46:10.874Z,9.53
2018-09-17T04:48:39.890Z,9.20
2018-09-17T04:51:08.912Z,8.57
2018-09-17T04:53:37.915Z,8.77
2018-09-17T04:56:06.918Z,8.13
2018-09-17T04:58:36.771Z,8.90
2018-09-17T05:01:05.795Z,8.80
2018-09-17T05:03:34.808Z,9.63
2018-09-17T05:06:03.897Z,9.13
2018-09-17T05:08:32.865Z,8.93
2018-09-17T05:11:01.822Z,9.77
2018-09-17T05:13:30.957Z,9.07
2018-09-17T05:16:00.046Z,8.80
2018-09-17T05:18:29.555Z,8.83
2018-09-17T05:20:58.604Z,8.67
2018-09-17T05:23:27.664Z,9.00
2018-09-17T05:25:56.704Z,9.13
2018-09-17T05:28:25.622Z,8.87
2018-09-17T05:30:54.824Z,9.07
2018-09-17T05:33:23.820Z,8.67
2018-09-17T05:35:52.970Z,9.77
2018-09-17T05:38:22.043Z,9.77
2018-09-17T05:40:51.104Z,9.23
2018-09-17T05:43:20.205Z,9.30
2018-09-17T05:45:50.083Z,8.80
2018-09-17T05:48:19.052Z,8.57
2018-09-17T05:50:48.068Z,9.40
2018-09-17T05:53:17.063Z,8.67
2018-09-17T05:55:46.090Z,8.67
2018-09-17T05:58:15.191Z,8.77
2018-09-17T06:00:44.277Z,8.67
2018-09-17T06:03:13.208Z,8.90
2018-09-17T06:05:42.292Z,8.60
2018-09-17T06:08:11.464Z,8.57
2018-09-17T06:10:41.608Z,8.80
2018-09-17T06:13:10.712Z,8.70
2018-09-17T06:15:39.679Z,8.83
2018-09-17T06:18:08.633Z,8.23
2018-09-17T06:20:37.576Z,8.53
2018-09-17T06:23:06.818Z,8.40
2018-09-17T06:25:35.784Z,9.20
2018-09-17T06:28:04.862Z,8.97
2018-09-17T06:30:34.008Z,8.57
2018-09-17T06:33:03.292Z,8.57
2018-09-17T06:35:32.266Z,9.63
2018-09-17T06:38:01.404Z,8.47
2018-09-17T06:40:30.954Z,8.83
2018-09-17T06:42:59.900Z,8.77
2018-09-17T06:45:29.018Z,9.37
2018-09-17T06:47:57.962Z,9.00
2018-09-17T06:50:26.938Z,9.60
2018-09-17T06:52:56.009Z,8.93
2018-09-17T06:55:25.043Z,9.10
2018-09-17T06:57:54.203Z,8.47
2018-09-17T07:00:28.529Z,8.03
2018-09-17T07:02:59.756Z,8.30
2018-09-17T07:05:28.755Z,7.80
2018-09-17T07:07:57.785Z,5.90
2018-09-17T07:10:26.761Z,6.25
2018-09-17T07:12:56.363Z,6.20
2018-09-17T07:15:25.383Z,6.00
2018-09-17T07:17:54.474Z,5.97
2018-09-17T07:20:23.666Z,5.87
2018-09-17T07:22:52.728Z,6.03
2018-09-17T07:25:21.767Z,5.15
2018-09-17T07:27:52.805Z,4.28
2018-09-17T07:30:21.998Z,5.10
2018-09-17T07:32:51.672Z,5.20
2018-09-17T07:35:20.898Z,4.67
2018-09-17T07:37:54.464Z,4.72
2018-09-17T07:40:24.088Z,5.10
2018-09-17T07:42:53.304Z,4.67
2018-09-17T07:45:22.277Z,4.67
2018-09-17T07:47:51.799Z,4.78
2018-09-17T07:50:20.758Z,4.85
2018-09-17T07:52:49.863Z,4.45
2018-09-17T07:55:19.020Z,4.20
2018-09-17T07:57:48.074Z,4.17
2018-09-17T08:00:17.340Z,4.50
2018-09-17T08:02:46.428Z,4.17
2018-09-17T08:05:15.637Z,4.30
2018-09-17T08:07:44.741Z,4.25
2018-09-17T08:10:18.038Z,3.27
2018-09-17T08:12:46.983Z,4.05
2018-09-17T08:15:15.975Z,4.40
2018-09-17T08:17:44.975Z,3.95
2018-09-17T08:20:13.959Z,4.05
2018-09-17T08:22:42.961Z,3.92
2018-09-17T08:25:12.171Z,4.05
2018-09-17T08:27:41.151Z,3.80
2018-09-17T08:30:10.459Z,3.72
2018-09-17T08:32:40.105Z,3.58
2018-09-17T08:35:09.858Z,3.45
2018-09-17T08:37:38.874Z,3.37
2018-09-17T08:40:08.026Z,3.10
2018-09-17T08:42:37.835Z,3.30
2018-09-17T08:45:06.900Z,3.33
2018-09-17T08:47:35.995Z,2.92
2018-09-17T08:50:05.227Z,3.20
2018-09-17T08:52:34.389Z,2.75
2018-09-17T08:55:10.506Z,3.45
2018-09-17T08:57:44.786Z,3.00
2018-09-17T09:00:17.796Z,3.02
2018-09-17T09:02:54.872Z,3.20
2018-09-17T09:05:29.315Z,2.75
2018-09-17T09:07:58.294Z,3.60
2018-09-17T09:10:32.671Z,3.35
2018-09-17T09:13:07.021Z,3.00
2018-09-17T09:15:39.025Z,2.80
2018-09-17T09:18:08.993Z,3.27
2018-09-17T09:20:38.507Z,3.00
2018-09-17T09:23:08.040Z,2.98
2018-09-17T09:25:36.992Z,2.75
2018-09-17T09:28:06.043Z,2.80
2018-09-17T09:30:35.163Z,3.00
2018-09-17T09:33:05.187Z,3.02
2018-09-17T09:35:34.325Z,2.67
2018-09-17T09:38:04.653Z,2.58
2018-09-17T09:40:33.683Z,2.27
2018-09-17T09:43:02.693Z,2.30
2018-09-17T09:45:31.819Z,2.37
2018-09-17T09:48:00.832Z,2.85
2018-09-17T09:50:29.989Z,2.47
2018-09-17T09:52:58.957Z,2.20
2018-09-17T09:55:28.457Z,2.72
2018-09-17T09:57:57.456Z,2.10
2018-09-17T10:00:31.846Z,2.30
2018-09-17T10:03:06.222Z,2.08
2018-09-17T10:05:35.225Z,2.33
2018-09-17T10:08:04.292Z,2.60
2018-09-17T10:10:39.057Z,2.00
2018-09-17T10:13:14.229Z,1.92
2018-09-17T10:18:55.391Z,2.20
2018-09-17T10:21:36.791Z,2.00
2018-09-17T10:24:05.824Z,1.82
2018-09-17T10:26:34.964Z,2.45
2018-09-17T10:29:04.016Z,2.37
2018-09-17T10:31:33.267Z,1.80
2018-09-17T10:34:02.247Z,2.00
2018-09-17T10:36:31.415Z,1.70
2018-09-17T10:39:00.506Z,1.87
2018-09-17T10:41:29.618Z,1.95
2018-09-17T10:43:58.829Z,1.75
2018-09-17T10:46:28.433Z,2.05
2018-09-17T10:48:57.538Z,2.08
2018-09-17T10:51:26.771Z,2.02
2018-09-17T10:53:55.843Z,2.05
2018-09-17T10:56:25.088Z,1.92
2018-09-17T10:58:54.350Z,2.22
2018-09-17T11:01:23.527Z,1.80
2018-09-17T11:03:56.688Z,1.60
2018-09-17T11:06:25.899Z,1.75
2018-09-17T11:08:55.024Z,1.70
2018-09-17T11:11:25.124Z,1.70
2018-09-17T11:13:54.695Z,1.95
2018-09-17T11:16:23.762Z,1.40
2018-09-17T11:18:53.026Z,1.90
2018-09-17T11:21:22.493Z,1.50
2018-09-17T11:23:51.668Z,1.60
2018-09-17T11:26:20.846Z,2.10
2018-09-17T11:28:49.945Z,1.90
2018-09-17T11:31:19.441Z,1.60
2018-09-17T11:33:48.479Z,1.80
2018-09-17T11:36:17.810Z,1.95
2018-09-17T11:38:46.936Z,1.67
2018-09-17T11:41:15.914Z,1.80
2018-09-17T11:43:44.879Z,2.20
2018-09-17T11:46:13.967Z,1.25
2018-09-17T11:48:43.027Z,1.37
2018-09-17T11:51:12.126Z,1.60
2018-09-17T11:53:41.329Z,1.67
2018-09-17T11:56:17.696Z,1.92
2018-09-17T11:58:47.211Z,1.57
2018-09-17T12:01:25.623Z,1.35
2018-09-17T12:04:00.592Z,1.45
2018-09-17T12:06:36.473Z,1.50
2018-09-17T12:09:08.033Z,1.50
2018-09-17T12:11:37.638Z,1.47
2018-09-17T12:14:06.715Z,1.40
2018-09-17T12:16:35.896Z,1.50
2018-09-17T12:19:05.126Z,1.60
2018-09-17T12:21:34.115Z,1.67
2018-09-17T12:24:03.243Z,1.80
2018-09-17T12:26:32.447Z,1.75
2018-09-17T12:29:01.523Z,1.37
2018-09-17T12:31:30.549Z,1.40
2018-09-17T12:34:00.007Z,1.62
2018-09-17T12:36:29.020Z,1.80
2018-09-17T12:38:59.464Z,1.67
2018-09-17T12:41:28.756Z,1.40
2018-09-17T12:43:57.808Z,1.52
2018-09-17T12:46:26.833Z,1.62
2018-09-17T12:48:56.239Z,1.40
2018-09-17T12:51:25.281Z,1.70
2018-09-17T12:53:54.462Z,2.90
2018-09-17T12:56:23.495Z,1.82
2018-09-17T12:58:52.506Z,1.95
2018-09-17T13:01:21.534Z,1.80
2018-09-17T13:03:50.544Z,1.60
2018-09-17T13:06:19.604Z,1.70
2018-09-17T13:08:48.604Z,1.77
2018-09-17T13:11:17.700Z,1.82
2018-09-17T13:13:46.772Z,1.92
2018-09-17T13:16:15.824Z,1.52
2018-09-17T13:18:44.821Z,2.20
2018-09-17T13:21:13.786Z,1.67
2018-09-17T13:23:43.486Z,1.60
2018-09-17T13:26:12.396Z,1.67
2018-09-17T13:28:41.444Z,1.57
2018-09-17T13:31:10.421Z,1.70
2018-09-17T13:33:39.509Z,1.47
2018-09-17T13:36:08.468Z,1.70
2018-09-17T13:38:37.545Z,1.80
2018-09-17T13:41:06.608Z,1.70
2018-09-17T13:43:35.651Z,1.70
2018-09-17T13:46:04.713Z,1.90
2018-09-17T13:48:33.739Z,1.75
2018-09-17T13:51:02.884Z,2.10
2018-09-17T13:53:32.055Z,1.80
2018-09-17T13:56:01.068Z,1.87
2018-09-17T13:58:30.123Z,2.10
2018-09-17T14:00:59.130Z,2.00
2018-09-17T14:03:28.106Z,2.02
2018-09-17T14:05:57.214Z,1.90
2018-09-17T14:08:26.205Z,2.08
2018-09-17T14:10:55.216Z,1.90
2018-09-17T14:13:24.369Z,2.45
2018-09-17T14:15:58.882Z,1.98
2018-09-17T14:18:27.929Z,1.90
2018-09-17T14:20:56.977Z,2.00
2018-09-17T14:23:25.976Z,2.05
2018-09-17T14:25:55.666Z,1.80
2018-09-17T14:28:24.680Z,1.87
2018-09-17T14:30:53.658Z,1.72
2018-09-17T14:33:27.800Z,2.72
2018-09-17T14:35:56.888Z,1.92
2018-09-17T14:38:26.091Z,1.60
2018-09-17T14:40:55.094Z,1.92
2018-09-17T14:43:24.076Z,1.62
2018-09-17T14:45:53.468Z,1.40
2018-09-17T14:48:22.535Z,1.65
2018-09-17T14:50:51.679Z,1.98
2018-09-17T14:53:20.881Z,1.45
2018-09-17T14:55:50.033Z,2.00
2018-09-17T14:58:19.574Z,2.10
2018-09-17T15:00:48.707Z,1.90
2018-09-17T15:03:17.910Z,1.90
2018-09-17T15:05:46.960Z,1.85
2018-09-17T15:08:16.392Z,2.00
2018-09-17T15:10:45.519Z,2.00
2018-09-17T15:13:14.569Z,1.87
2018-09-17T15:15:51.833Z,1.75
2018-09-17T15:18:20.935Z,1.47
2018-09-17T15:20:50.709Z,1.60
2018-09-17T15:23:20.121Z,1.75
2018-09-17T15:25:50.223Z,1.75
2018-09-17T15:28:19.665Z,1.90
2018-09-17T15:30:48.650Z,2.08
2018-09-17T15:33:18.270Z,1.75
2018-09-17T15:35:47.522Z,1.80
2018-09-17T15:38:16.854Z,2.17
2018-09-17T15:40:46.485Z,1.90
2018-09-17T15:43:15.446Z,1.80
2018-09-17T15:45:44.640Z,1.90
2018-09-17T15:48:13.782Z,1.80
2018-09-17T15:50:42.829Z,2.00
2018-09-17T15:53:12.107Z,2.33
2018-09-17T15:55:41.323Z,2.35
2018-09-17T15:58:10.304Z,2.02
2018-09-17T16:00:39.311Z,2.30
2018-09-17T16:03:08.518Z,1.85
2018-09-17T16:05:37.500Z,1.60
2018-09-17T16:08:06.767Z,1.95
2018-09-17T16:10:35.781Z,2.50
2018-09-17T16:13:04.918Z,2.60
2018-09-17T16:15:35.215Z,2.70
2018-09-17T16:18:04.335Z,2.75
2018-09-17T16:20:33.458Z,2.85
2018-09-17T16:23:02.640Z,2.50
2018-09-17T16:25:31.833Z,3.20
2018-09-17T16:28:01.061Z,5.03
2018-09-17T16:30:30.289Z,3.08
2018-09-17T16:32:59.818Z,4.15
2018-09-17T16:35:28.950Z,2.90
2018-09-17T16:37:58.312Z,3.00
2018-09-17T16:40:27.528Z,3.42
2018-09-17T16:42:56.814Z,2.37
2018-09-17T16:45:25.926Z,2.75
2018-09-17T16:47:55.491Z,3.22
2018-09-17T16:50:24.714Z,3.52
2018-09-17T16:52:53.882Z,3.17
2018-09-17T16:55:23.198Z,3.70
2018-09-17T16:57:52.234Z,4.70
2018-09-17T17:00:21.337Z,5.92
2018-09-17T17:02:50.401Z,6.03
2018-09-17T17:05:19.525Z,6.90
2018-09-17T17:07:48.773Z,7.15
2018-09-17T17:10:17.981Z,6.87
2018-09-17T17:12:46.978Z,6.00
2018-09-17T17:15:16.088Z,7.35
2018-09-17T17:17:46.247Z,7.92
2018-09-17T17:20:17.951Z,9.33
2018-09-17T17:22:50.606Z,8.43
2018-09-17T17:25:19.843Z,6.60
2018-09-17T17:27:48.944Z,6.65
2018-09-17T17:30:17.968Z,7.87
2018-09-17T17:32:47.191Z,8.50
2018-09-17T17:35:16.696Z,8.78
2018-09-17T17:37:46.240Z,8.40
2018-09-17T17:40:15.400Z,5.60
2018-09-17T17:42:44.384Z,9.40
2018-09-17T17:45:13.766Z,9.40
2018-09-17T17:47:42.823Z,9.58
2018-09-17T17:50:12.832Z,9.80
2018-09-17T17:52:41.893Z,8.90
2018-09-17T17:55:11.182Z,9.23
2018-09-17T17:57:41.198Z,9.13
2018-09-17T18:00:11.179Z,9.55
2018-09-17T18:02:40.266Z,7.97
2018-09-17T18:05:10.011Z,8.65
2018-09-17T18:07:39.040Z,8.53
2018-09-17T18:10:08.109Z,7.60
2018-09-17T18:12:38.091Z,6.87
2018-09-17T18:15:07.275Z,6.80
2018-09-17T18:17:36.346Z,6.58
2018-09-17T18:20:05.945Z,5.90
2018-09-17T18:22:35.743Z,7.00
2018-09-17T18:25:04.791Z,7.22
2018-09-17T18:27:33.860Z,6.58
2018-09-17T18:30:02.978Z,6.33
2018-09-17T18:32:32.088Z,6.00
2018-09-17T18:35:01.214Z,6.60
2018-09-17T18:37:30.273Z,6.92
2018-09-17T18:40:00.118Z,6.67
2018-09-17T18:42:29.193Z,6.22
2018-09-17T18:44:58.362Z,6.65
2018-09-17T18:47:27.538Z,6.97
2018-09-17T18:49:56.577Z,6.08
2018-09-17T18:52:25.570Z,6.83
2018-09-17T18:54:54.814Z,7.90
2018-09-17T18:57:23.852Z,8.40
2018-09-17T18:59:52.917Z,8.25
2018-09-17T19:02:22.870Z,8.03
2018-09-17T19:04:52.691Z,7.60
2018-09-17T19:07:21.731Z,9.28
2018-09-17T19:09:51.637Z,9.13
2018-09-17T19:12:21.696Z,8.25
2018-09-17T19:14:56.144Z,8.60
2018-09-17T19:17:30.693Z,9.70
2018-09-17T19:20:00.023Z,8.90
2018-09-17T19:22:34.505Z,8.73
2018-09-17T19:25:03.761Z,9.30
2018-09-17T19:27:38.248Z,9.20
2018-09-17T19:30:07.951Z,8.03
2018-09-17T19:32:37.133Z,8.30
2018-09-17T19:35:06.295Z,7.97
2018-09-17T19:37:41.082Z,7.90
2018-09-17T19:40:15.038Z,8.45
2018-09-17T19:42:45.288Z,9.40
2018-09-17T19:45:19.642Z,9.73
2018-09-17T19:47:49.758Z,8.38
2018-09-17T19:50:24.446Z,8.58
2018-09-17T19:52:53.462Z,9.18
2018-09-17T19:55:22.634Z,8.05
2018-09-17T19:57:57.063Z,7.67
2018-09-17T20:03:01.494Z,8.58
2018-09-17T20:05:36.357Z,8.48
2018-09-17T20:08:05.456Z,8.83
2018-09-17T20:10:34.465Z,8.95
2018-09-17T20:13:03.474Z,8.23
2018-09-17T20:15:32.555Z,8.43
2018-09-17T20:18:01.770Z,8.58
2018-09-17T20:20:30.831Z,9.25
2018-09-17T20:22:59.859Z,8.73
2018-09-17T20:25:29.003Z,8.63
2018-09-17T20:27:59.836Z,7.62
2018-09-17T20:30:28.801Z,8.95
2018-09-17T20:32:57.773Z,8.37
2018-09-17T20:35:26.813Z,8.88
2018-09-17T20:37:55.913Z,10.00
2018-09-17T20:40:25.103Z,10.40
2018-09-17T20:42:54.114Z,8.50
2018-09-17T20:45:23.449Z,8.35
2018-09-17T20:47:52.387Z,7.90
2018-09-17T20:50:21.367Z,8.13
2018-09-17T20:52:50.397Z,7.12
2018-09-17T20:55:19.554Z,8.05
2018-09-17T20:57:48.536Z,9.85
2018-09-17T21:00:18.191Z,8.13
2018-09-17T21:02:47.533Z,8.18
2018-09-17T21:05:16.604Z,7.78
2018-09-17T21:07:46.052Z,8.27
2018-09-17T21:10:15.300Z,7.50
2018-09-17T21:12:44.528Z,11.00
2018-09-17T21:15:13.672Z,9.90
2018-09-17T21:17:42.725Z,9.37
2018-09-17T21:20:11.965Z,8.18
2018-09-17T21:22:40.886Z,8.60
2018-09-17T21:25:10.069Z,8.43
2018-09-17T21:27:39.395Z,8.53
2018-09-17T21:30:08.520Z,8.43
2018-09-17T21:32:37.514Z,8.83
2018-09-17T21:35:06.587Z,8.50
2018-09-17T21:37:35.555Z,7.20
2018-09-17T21:40:04.686Z,7.10
2018-09-17T21:42:33.674Z,8.30
2018-09-17T21:45:02.656Z,8.27
2018-09-17T21:47:31.854Z,6.80
2018-09-17T21:50:00.802Z,8.10
2018-09-17T21:52:30.137Z,6.77
2018-09-17T21:54:59.431Z,6.75
2018-09-17T21:57:28.356Z,6.90
2018-09-17T21:59:57.450Z,6.23
2018-09-17T22:02:26.427Z,7.62
2018-09-17T22:04:55.467Z,7.80
2018-09-17T22:07:25.403Z,6.60
2018-09-17T22:09:54.787Z,7.00
2018-09-17T22:12:23.713Z,6.43
2018-09-17T22:14:52.704Z,6.70
2018-09-17T22:17:22.354Z,6.78
2018-09-17T22:19:51.443Z,6.80
2018-09-17T22:22:20.413Z,6.63
2018-09-17T22:24:49.402Z,6.53
2018-09-17T22:27:18.431Z,6.10
2018-09-17T22:29:47.528Z,6.67
2018-09-17T22:32:16.630Z,6.27
2018-09-17T22:34:45.618Z,6.33
2018-09-17T22:37:14.627Z,6.30
2018-09-17T22:39:43.722Z,6.90
2018-09-17T22:42:12.640Z,5.97
2018-09-17T22:44:42.783Z,6.23
2018-09-17T22:47:11.893Z,6.93
2018-09-17T22:49:40.960Z,6.53
2018-09-17T22:52:10.391Z,6.05
2018-09-17T22:54:39.314Z,6.37
2018-09-17T22:57:08.324Z,6.50
2018-09-17T22:59:37.303Z,6.47
2018-09-17T23:02:06.415Z,6.43
2018-09-17T23:04:35.441Z,6.40
2018-09-17T23:07:04.492Z,6.43
2018-09-17T23:09:33.475Z,6.13
2018-09-17T23:12:02.575Z,6.10
2018-09-17T23:14:32.100Z,6.43
2018-09-17T23:17:01.248Z,6.03
2018-09-17T23:19:30.183Z,6.33
2018-09-17T23:21:59.111Z,6.12
2018-09-17T23:24:28.065Z,6.63
2018-09-17T23:26:56.994Z,6.30
2018-09-17T23:29:25.943Z,6.83
2018-09-17T23:31:54.944Z,6.40
2018-09-17T23:34:23.879Z,6.37
2018-09-17T23:36:53.016Z,6.83
2018-09-17T23:39:22.422Z,6.37
2018-09-17T23:41:51.331Z,6.60
2018-09-17T23:44:20.560Z,6.37
2018-09-17T23:46:49.598Z,6.60
2018-09-17T23:49:18.643Z,6.37
2018-09-17T23:51:47.652Z,6.43
2018-09-17T23:54:16.737Z,6.37
2018-09-17T23:56:45.800Z,5.90
2018-09-17T23:59:14.960Z,6.70
